createdAt,value
2022-08-22T00:00:13.469Z,6.00
2022-08-22T00:02:48.935Z,6.67
2022-08-22T00:03:15.478Z,7.00
2022-08-22T00:05:38.406Z,6.00
2022-08-22T00:08:09.773Z,6.00
2022-08-22T00:10:48.360Z,5.00
2022-08-22T00:13:20.878Z,6.00
2022-08-22T00:15:51.271Z,6.40
2022-08-22T00:18:22.444Z,6.00
2022-08-22T00:20:54.221Z,6.00
2022-08-22T00:23:26.360Z,5.20
2022-08-22T00:25:56.388Z,5.50
2022-08-22T00:28:25.736Z,5.00
2022-08-22T00:30:57.821Z,7.00
2022-08-22T00:33:29.217Z,6.00
2022-08-22T00:36:07.180Z,5.60
2022-08-22T00:38:40.039Z,6.00
2022-08-22T00:41:21.966Z,6.50
2022-08-22T00:44:10.853Z,6.00
2022-08-22T00:47:00.939Z,5.00
2022-08-22T00:49:54.036Z,6.00
2022-08-22T00:52:47.078Z,4.20
2022-08-22T00:55:28.070Z,6.00
2022-08-22T00:58:18.599Z,6.00
2022-08-22T01:00:48.880Z,7.00
2022-08-22T01:03:44.990Z,7.00
2022-08-22T01:06:20.886Z,6.25
2022-08-22T01:09:02.462Z,7.25
2022-08-22T01:11:53.099Z,5.00
2022-08-22T01:14:35.128Z,5.75
2022-08-22T01:17:38.013Z,4.00
2022-08-22T01:20:34.048Z,6.60
2022-08-22T01:23:35.575Z,5.00
2022-08-22T01:26:41.870Z,6.00
2022-08-22T01:29:49.401Z,5.00
2022-08-22T01:32:57.083Z,7.00
2022-08-22T01:36:01.114Z,6.00
2022-08-22T01:39:03.427Z,7.00
2022-08-22T01:42:10.184Z,6.40
2022-08-22T01:44:57.815Z,6.00
2022-08-22T01:47:27.856Z,6.00
2022-08-22T01:50:01.557Z,5.80
2022-08-22T01:52:37.366Z,6.20
2022-08-22T01:55:10.635Z,6.20
2022-08-22T01:57:50.603Z,5.00
2022-08-22T02:00:35.184Z,5.00
2022-08-22T02:03:13.628Z,5.00
2022-08-22T02:05:47.982Z,7.00
2022-08-22T02:08:22.894Z,8.00
2022-08-22T02:10:58.290Z,5.60
2022-08-22T02:13:37.601Z,5.00
2022-08-22T02:16:09.560Z,6.00
2022-08-22T02:18:51.207Z,5.20
2022-08-22T02:21:22.657Z,7.00
2022-08-22T02:23:56.061Z,8.00
2022-08-22T02:26:27.099Z,6.00
2022-08-22T02:28:58.703Z,6.00
2022-08-22T02:31:40.017Z,7.00
2022-08-22T02:34:31.446Z,6.20
2022-08-22T02:37:06.874Z,5.60
2022-08-22T02:39:38.416Z,7.00
2022-08-22T02:42:16.004Z,7.00
2022-08-22T02:44:48.766Z,7.00
2022-08-22T02:47:22.118Z,6.40
2022-08-22T02:49:53.105Z,7.00
2022-08-22T02:52:26.794Z,6.80
2022-08-22T02:54:59.501Z,7.25
2022-08-22T02:57:34.537Z,6.00
2022-08-22T03:00:31.512Z,8.00
2022-08-22T03:03:04.487Z,7.00
2022-08-22T03:05:43.131Z,8.00
2022-08-22T03:08:14.984Z,8.00
2022-08-22T03:10:46.747Z,6.50
2022-08-22T03:13:17.890Z,6.00
2022-08-22T03:15:49.441Z,6.20
2022-08-22T03:18:22.074Z,6.60
2022-08-22T03:20:54.111Z,6.00
2022-08-22T03:23:27.728Z,6.00
2022-08-22T03:26:01.859Z,7.00
2022-08-22T03:28:37.897Z,8.00
2022-08-22T03:31:12.871Z,8.00
2022-08-22T03:33:40.937Z,7.00
2022-08-22T03:36:13.467Z,9.00
2022-08-22T03:38:49.095Z,8.00
2022-08-22T03:41:42.965Z,6.00
2022-08-22T03:44:20.730Z,6.50
2022-08-22T03:47:04.560Z,7.60
2022-08-22T03:49:50.445Z,6.60
2022-08-22T03:52:58.747Z,6.25
2022-08-22T03:55:27.925Z,7.00
2022-08-22T03:58:13.664Z,7.80
2022-08-22T04:01:29.670Z,7.00
2022-08-22T04:04:39.234Z,5.40
2022-08-22T04:07:38.385Z,7.00
2022-08-22T04:10:49.810Z,6.60
2022-08-22T04:13:34.855Z,8.75
2022-08-22T04:16:39.032Z,8.00
2022-08-22T04:19:30.425Z,7.00
2022-08-22T04:22:13.600Z,7.50
2022-08-22T04:24:48.391Z,8.00
2022-08-22T04:27:23.406Z,7.25
2022-08-22T04:29:55.905Z,6.40
2022-08-22T04:32:27.112Z,6.00
2022-08-22T04:34:57.095Z,6.00
2022-08-22T04:37:26.351Z,8.00
2022-08-22T04:39:56.816Z,8.00
2022-08-22T04:42:32.623Z,7.00
2022-08-22T04:45:07.310Z,7.80
2022-08-22T04:47:37.956Z,7.40
2022-08-22T04:50:09.208Z,6.40
2022-08-22T04:52:53.164Z,9.00
2022-08-22T04:55:28.140Z,7.00
2022-08-22T04:57:58.524Z,8.00
2022-08-22T05:00:36.659Z,8.00
2022-08-22T05:03:04.718Z,7.00
2022-08-22T05:05:36.664Z,7.75
2022-08-22T05:08:04.830Z,8.60
2022-08-22T05:10:36.711Z,8.00
2022-08-22T05:13:07.395Z,10.00
2022-08-22T05:15:38.080Z,7.25
2022-08-22T05:18:08.186Z,8.00
2022-08-22T05:20:36.307Z,7.00
2022-08-22T05:23:17.496Z,8.00
2022-08-22T05:25:46.572Z,9.50
2022-08-22T05:28:16.198Z,8.40
2022-08-22T05:30:46.826Z,8.00
2022-08-22T05:33:26.378Z,9.00
2022-08-22T05:35:58.055Z,10.40
2022-08-22T05:38:30.519Z,9.00
2022-08-22T05:41:00.973Z,9.00
2022-08-22T05:43:29.047Z,9.00
2022-08-22T05:45:58.968Z,9.00
2022-08-22T05:48:30.265Z,9.50
2022-08-22T05:51:00.077Z,9.00
2022-08-22T05:53:30.652Z,9.00
2022-08-22T05:56:00.119Z,8.50
2022-08-22T05:58:50.827Z,8.50
2022-08-22T06:01:30.210Z,8.50
2022-08-22T06:04:02.551Z,8.00
2022-08-22T06:06:31.344Z,8.00
2022-08-22T06:09:02.707Z,7.50
2022-08-22T06:11:33.922Z,8.00
2022-08-22T06:14:08.057Z,8.20
2022-08-22T06:16:40.629Z,7.00
2022-08-22T06:19:19.780Z,7.80
2022-08-22T06:21:49.343Z,6.00
2022-08-22T06:24:21.224Z,8.00
2022-08-22T06:26:51.219Z,8.50
2022-08-22T06:29:31.347Z,8.00
2022-08-22T06:32:00.898Z,8.00
2022-08-22T06:34:30.119Z,9.00
2022-08-22T06:36:58.802Z,7.40
2022-08-22T06:39:28.363Z,6.50
2022-08-22T06:41:58.066Z,7.00
2022-08-22T06:44:28.450Z,6.25
2022-08-22T06:46:58.570Z,7.50
2022-08-22T06:49:29.124Z,7.25
2022-08-22T06:51:59.703Z,7.40
2022-08-22T06:54:33.792Z,6.25
2022-08-22T06:57:02.427Z,5.60
2022-08-22T06:59:31.020Z,5.40
2022-08-22T07:02:00.552Z,7.25
2022-08-22T07:04:30.031Z,23.00
2022-08-22T07:06:58.709Z,10.60
2022-08-22T07:09:28.218Z,7.00
2022-08-22T07:11:57.315Z,5.67
2022-08-22T07:14:30.396Z,5.00
2022-08-22T07:16:59.754Z,6.00
2022-08-22T07:19:33.568Z,5.00
2022-08-22T07:22:12.155Z,5.00
2022-08-22T07:24:46.600Z,4.33
2022-08-22T07:27:20.340Z,4.00
2022-08-22T07:29:51.035Z,3.00
2022-08-22T07:32:20.638Z,3.00
2022-08-22T07:35:02.042Z,4.00
2022-08-22T07:37:36.695Z,4.50
2022-08-22T07:40:09.105Z,4.50
2022-08-22T07:42:44.260Z,4.25
2022-08-22T07:45:17.236Z,5.00
2022-08-22T07:47:57.199Z,4.00
2022-08-22T07:50:29.735Z,4.00
2022-08-22T07:53:15.659Z,4.75
2022-08-22T07:55:48.401Z,4.00
2022-08-22T07:58:17.930Z,4.00
2022-08-22T08:00:46.334Z,5.00
2022-08-22T08:03:14.423Z,3.00
2022-08-22T08:05:44.970Z,4.00
2022-08-22T08:08:23.211Z,4.00
2022-08-22T08:10:51.942Z,3.60
2022-08-22T08:13:23.210Z,4.00
2022-08-22T08:15:51.315Z,3.20
2022-08-22T08:18:22.043Z,3.50
2022-08-22T08:20:53.183Z,2.80
2022-08-22T08:23:23.599Z,4.00
2022-08-22T08:25:58.776Z,3.00
2022-08-22T08:28:34.992Z,4.60
2022-08-22T08:31:09.832Z,3.00
2022-08-22T08:33:40.041Z,4.00
2022-08-22T08:36:20.542Z,2.60
2022-08-22T08:38:50.624Z,4.50
2022-08-22T08:41:41.985Z,3.80
2022-08-22T08:44:17.067Z,2.00
2022-08-22T08:47:14.927Z,2.60
2022-08-22T08:49:58.954Z,3.20
2022-08-22T08:52:42.584Z,4.60
2022-08-22T08:55:22.764Z,3.00
2022-08-22T08:58:06.795Z,3.60
2022-08-22T09:00:49.992Z,3.00
2022-08-22T09:06:44.568Z,3.80
2022-08-22T09:09:29.904Z,3.00
2022-08-22T09:12:10.855Z,3.00
2022-08-22T09:15:23.927Z,2.40
2022-08-22T09:18:28.339Z,3.00
2022-08-22T09:21:30.429Z,3.00
2022-08-22T09:24:32.917Z,4.80
2022-08-22T09:27:03.722Z,2.60
2022-08-22T09:29:54.643Z,4.00
2022-08-22T09:32:29.421Z,2.40
2022-08-22T09:35:01.588Z,2.20
2022-08-22T09:37:34.950Z,2.00
2022-08-22T09:40:05.702Z,2.00
2022-08-22T09:42:44.970Z,3.00
2022-08-22T09:45:51.730Z,5.00
2022-08-22T09:48:30.491Z,2.60
2022-08-22T09:51:28.269Z,3.80
2022-08-22T09:54:07.329Z,3.40
2022-08-22T09:56:38.922Z,4.00
2022-08-22T09:59:12.705Z,3.60
2022-08-22T10:01:47.579Z,2.60
2022-08-22T10:04:40.661Z,1.40
2022-08-22T10:07:34.211Z,2.60
2022-08-22T10:10:07.784Z,4.00
2022-08-22T10:12:42.606Z,2.00
2022-08-22T10:15:18.742Z,3.50
2022-08-22T10:17:55.449Z,3.50
2022-08-22T10:20:27.693Z,5.00
2022-08-22T10:23:00.521Z,3.00
2022-08-22T10:25:34.774Z,3.40
2022-08-22T10:28:32.487Z,2.00
2022-08-22T10:31:15.710Z,3.00
2022-08-22T10:33:46.596Z,3.60
2022-08-22T10:36:17.823Z,4.00
2022-08-22T10:38:47.360Z,3.00
2022-08-22T10:41:23.181Z,3.00
2022-08-22T10:44:00.604Z,2.75
2022-08-22T10:46:33.437Z,2.00
2022-08-22T10:49:08.058Z,2.75
2022-08-22T10:51:40.757Z,3.00
2022-08-22T10:54:27.276Z,2.00
2022-08-22T10:57:03.713Z,3.00
2022-08-22T10:59:39.402Z,1.40
2022-08-22T11:02:28.628Z,2.60
2022-08-22T11:05:15.688Z,2.60
2022-08-22T11:07:48.676Z,4.00
2022-08-22T11:10:25.014Z,2.00
2022-08-22T11:13:00.289Z,3.00
2022-08-22T11:15:59.174Z,3.60
2022-08-22T11:18:37.711Z,3.60
2022-08-22T11:21:07.487Z,2.00
2022-08-22T11:23:44.836Z,1.60
2022-08-22T11:26:33.513Z,4.75
2022-08-22T11:29:18.660Z,2.75
2022-08-22T11:31:52.177Z,2.00
2022-08-22T11:34:29.555Z,1.00
2022-08-22T11:37:01.194Z,4.00
2022-08-22T11:39:34.228Z,2.60
2022-08-22T11:42:06.536Z,2.00
2022-08-22T11:44:50.475Z,3.00
2022-08-22T11:47:20.793Z,3.00
2022-08-22T11:49:59.291Z,3.00
2022-08-22T11:52:51.701Z,1.50
2022-08-22T11:55:23.191Z,1.50
2022-08-22T11:57:53.088Z,3.00
2022-08-22T12:00:33.918Z,2.00
2022-08-22T12:03:27.264Z,3.40
2022-08-22T12:05:59.418Z,2.00
2022-08-22T12:09:01.240Z,4.00
2022-08-22T12:11:33.573Z,2.00
2022-08-22T12:14:05.853Z,2.00
2022-08-22T12:16:45.056Z,2.80
2022-08-22T12:19:19.333Z,1.00
2022-08-22T12:22:31.147Z,2.00
2022-08-22T12:25:07.108Z,2.80
2022-08-22T12:27:50.749Z,2.50
2022-08-22T12:30:29.851Z,3.00
2022-08-22T12:33:22.004Z,2.00
2022-08-22T12:36:18.711Z,2.00
2022-08-22T12:39:02.825Z,1.00
2022-08-22T12:41:46.490Z,2.20
2022-08-22T12:44:26.337Z,3.00
2022-08-22T12:47:22.836Z,2.00
2022-08-22T12:50:20.588Z,2.20
2022-08-22T12:53:01.388Z,2.00
2022-08-22T12:55:36.237Z,3.00
2022-08-22T12:58:11.218Z,3.00
2022-08-22T13:00:40.381Z,2.20
2022-08-22T13:03:12.450Z,3.00
2022-08-22T13:05:41.280Z,2.75
2022-08-22T13:08:12.250Z,1.80
2022-08-22T13:10:46.725Z,4.00
2022-08-22T13:13:16.954Z,2.00
2022-08-22T13:15:57.101Z,2.00
2022-08-22T13:18:31.088Z,3.00
2022-08-22T13:21:01.590Z,4.00
2022-08-22T13:23:31.010Z,3.00
2022-08-22T13:26:07.956Z,2.60
2022-08-22T13:28:38.730Z,3.75
2022-08-22T13:31:06.929Z,2.75
2022-08-22T13:33:37.578Z,2.40
2022-08-22T13:36:07.003Z,3.00
2022-08-22T13:38:46.376Z,2.50
2022-08-22T13:41:20.259Z,3.00
2022-08-22T13:44:08.212Z,3.75
2022-08-22T13:46:48.151Z,3.00
2022-08-22T13:49:33.093Z,1.75
2022-08-22T13:52:08.317Z,4.00
2022-08-22T13:54:51.934Z,2.25
2022-08-22T13:57:25.648Z,3.00
2022-08-22T14:00:05.089Z,2.00
2022-08-22T14:02:52.919Z,3.00
2022-08-22T14:05:23.418Z,4.00
2022-08-22T14:07:55.544Z,1.50
2022-08-22T14:10:28.436Z,2.20
2022-08-22T14:13:30.821Z,3.00
2022-08-22T14:16:02.378Z,3.00
2022-08-22T14:18:35.963Z,4.00
2022-08-22T14:21:33.429Z,2.25
2022-08-22T14:24:13.863Z,3.00
2022-08-22T14:26:47.599Z,2.60
2022-08-22T14:29:18.658Z,4.00
2022-08-22T14:31:57.169Z,3.00
2022-08-22T14:34:25.231Z,2.20
2022-08-22T14:36:55.288Z,4.00
2022-08-22T14:39:24.504Z,3.00
2022-08-22T14:41:57.952Z,4.60
2022-08-22T14:44:32.398Z,3.75
2022-08-22T14:47:03.773Z,4.00
2022-08-22T14:49:36.158Z,4.00
2022-08-22T14:52:08.944Z,3.00
2022-08-22T14:54:37.168Z,5.00
2022-08-22T14:57:10.066Z,3.00
2022-08-22T14:59:47.026Z,3.00
2022-08-22T15:02:24.923Z,2.75
2022-08-22T15:04:55.005Z,4.00
2022-08-22T15:07:24.686Z,1.00
2022-08-22T15:09:54.754Z,3.60
2022-08-22T15:12:26.993Z,4.00
2022-08-22T15:14:57.730Z,3.00
2022-08-22T15:17:37.923Z,2.00
2022-08-22T15:20:12.938Z,4.00
2022-08-22T15:22:41.452Z,3.00
2022-08-22T15:25:16.364Z,4.00
2022-08-22T15:27:47.927Z,4.00
2022-08-22T15:30:20.849Z,3.20
2022-08-22T15:32:50.104Z,4.00
2022-08-22T15:35:27.731Z,4.00
2022-08-22T15:38:00.344Z,4.00
2022-08-22T15:40:33.964Z,5.00
2022-08-22T15:43:13.599Z,4.00
2022-08-22T15:45:44.512Z,5.00
2022-08-22T15:48:25.191Z,4.50
2022-08-22T15:50:57.642Z,4.00
2022-08-22T15:53:27.083Z,3.00
2022-08-22T15:56:19.895Z,4.60
2022-08-22T15:58:49.687Z,4.40
2022-08-22T16:01:20.632Z,6.00
2022-08-22T16:03:55.053Z,5.40
2022-08-22T16:06:42.400Z,5.00
2022-08-22T16:09:10.836Z,5.00
2022-08-22T16:11:39.334Z,5.00
2022-08-22T16:14:18.638Z,5.80
2022-08-22T16:17:01.966Z,4.33
2022-08-22T16:19:30.435Z,3.50
2022-08-22T16:22:12.221Z,6.40
2022-08-22T16:25:00.188Z,3.00
2022-08-22T16:27:29.032Z,5.00
2022-08-22T16:30:15.432Z,5.50
2022-08-22T16:32:56.375Z,3.40
2022-08-22T16:36:02.108Z,5.00
2022-08-22T16:38:36.894Z,6.00
2022-08-22T16:41:05.262Z,4.40
2022-08-22T16:43:33.326Z,4.00
2022-08-22T16:46:02.664Z,5.00
2022-08-22T16:48:36.401Z,4.40
2022-08-22T16:51:11.116Z,4.40
2022-08-22T16:54:11.130Z,3.00
2022-08-22T16:57:00.881Z,4.00
2022-08-22T16:59:42.442Z,6.20
2022-08-22T17:02:25.259Z,4.00
2022-08-22T17:05:03.355Z,3.00
2022-08-22T17:07:37.614Z,4.00
2022-08-22T17:10:34.143Z,4.00
2022-08-22T17:13:11.056Z,4.00
2022-08-22T17:15:47.292Z,4.00
2022-08-22T17:18:41.440Z,3.00
2022-08-22T17:21:12.935Z,3.60
2022-08-22T17:23:43.442Z,5.00
2022-08-22T17:26:20.045Z,5.00
2022-08-22T17:28:53.331Z,4.00
2022-08-22T17:31:25.598Z,4.00
2022-08-22T17:34:04.850Z,5.00
2022-08-22T17:36:42.923Z,3.80
2022-08-22T17:39:17.240Z,5.00
2022-08-22T17:41:47.083Z,4.00
2022-08-22T17:44:17.533Z,4.60
2022-08-22T17:46:48.427Z,4.00
2022-08-22T17:49:21.819Z,5.00
2022-08-22T17:51:54.362Z,6.00
2022-08-22T17:54:28.275Z,5.00
2022-08-22T17:57:05.686Z,4.75
2022-08-22T17:59:38.208Z,5.00
2022-08-22T18:02:11.398Z,4.50
2022-08-22T18:04:47.277Z,4.00
2022-08-22T18:07:36.162Z,4.00
2022-08-22T18:10:08.291Z,3.00
2022-08-22T18:12:41.040Z,4.33
2022-08-22T18:15:12.665Z,3.40
2022-08-22T18:17:42.613Z,5.25
2022-08-22T18:20:12.286Z,5.00
2022-08-22T18:22:47.451Z,6.00
2022-08-22T18:25:30.554Z,3.40
2022-08-22T18:28:02.150Z,4.60
2022-08-22T18:30:32.116Z,5.00
2022-08-22T18:33:02.761Z,5.00
2022-08-22T18:35:35.603Z,4.50
2022-08-22T18:38:19.505Z,4.60
2022-08-22T18:40:50.497Z,5.20
2022-08-22T18:43:23.930Z,5.00
2022-08-22T18:46:03.810Z,5.00
2022-08-22T18:48:49.463Z,5.80
2022-08-22T18:51:25.035Z,6.75
2022-08-22T18:53:56.185Z,4.40
2022-08-22T18:56:46.893Z,6.25
2022-08-22T18:59:26.020Z,5.25
2022-08-22T19:02:02.439Z,5.00
2022-08-22T19:04:47.127Z,3.60
2022-08-22T19:07:26.115Z,4.25
2022-08-22T19:10:20.800Z,4.00
2022-08-22T19:12:59.297Z,3.67
2022-08-22T19:15:32.752Z,5.00
2022-08-22T19:18:29.897Z,4.00
2022-08-22T19:21:37.887Z,4.00
2022-08-22T19:24:07.230Z,4.40
2022-08-22T19:26:38.991Z,4.00
2022-08-22T19:29:10.928Z,4.40
2022-08-22T19:32:00.373Z,4.60
2022-08-22T19:34:39.706Z,6.00
2022-08-22T19:37:32.077Z,5.00
2022-08-22T19:40:02.962Z,5.00
2022-08-22T19:42:39.399Z,5.00
2022-08-22T19:45:10.379Z,4.25
2022-08-22T19:47:39.651Z,4.00
2022-08-22T19:50:14.628Z,6.00
2022-08-22T19:52:52.219Z,5.40
2022-08-22T19:55:23.729Z,6.00
2022-08-22T19:57:58.647Z,4.00
2022-08-22T20:00:41.743Z,5.00
2022-08-22T20:03:12.708Z,7.00
2022-08-22T20:05:57.532Z,4.00
2022-08-22T20:08:37.727Z,4.25
2022-08-22T20:11:16.620Z,5.80
2022-08-22T20:13:46.504Z,5.25
2022-08-22T20:16:17.310Z,5.20
2022-08-22T20:19:18.982Z,5.20
2022-08-22T20:21:53.969Z,5.75
2022-08-22T20:24:25.622Z,6.00
2022-08-22T20:27:12.867Z,4.60
2022-08-22T20:29:45.504Z,6.00
2022-08-22T20:32:14.508Z,5.00
2022-08-22T20:34:42.730Z,6.00
2022-08-22T20:37:29.602Z,6.00
2022-08-22T20:40:04.481Z,6.00
2022-08-22T20:42:32.599Z,5.00
2022-08-22T20:45:03.587Z,4.25
2022-08-22T20:47:41.794Z,7.00
2022-08-22T20:50:12.030Z,5.00
2022-08-22T20:52:43.751Z,6.40
2022-08-22T20:55:25.947Z,5.50
2022-08-22T20:58:01.577Z,5.00
2022-08-22T21:00:32.848Z,3.40
2022-08-22T21:03:02.629Z,6.40
2022-08-22T21:05:34.503Z,6.00
2022-08-22T21:08:04.808Z,5.00
2022-08-22T21:10:51.257Z,4.60
2022-08-22T21:13:21.045Z,6.00
2022-08-22T21:15:51.504Z,5.75
2022-08-22T21:18:28.179Z,5.25
2022-08-22T21:20:56.369Z,6.00
2022-08-22T21:23:24.444Z,6.00
2022-08-22T21:25:56.679Z,5.60
2022-08-22T21:28:29.726Z,6.00
2022-08-22T21:30:59.355Z,5.40
2022-08-22T21:33:27.416Z,5.80
2022-08-22T21:35:56.656Z,6.60
2022-08-22T21:38:24.717Z,5.00
2022-08-22T21:40:52.929Z,5.25
2022-08-22T21:43:31.859Z,4.75
2022-08-22T21:46:01.352Z,5.00
2022-08-22T21:48:34.176Z,6.60
2022-08-22T21:51:21.557Z,7.40
2022-08-22T21:53:49.693Z,4.25
2022-08-22T21:56:37.766Z,5.60
2022-08-22T21:59:26.197Z,6.00
2022-08-22T22:02:37.143Z,5.75
2022-08-22T22:05:08.302Z,5.80
2022-08-22T22:07:37.705Z,5.25
2022-08-22T22:10:07.395Z,9.00
2022-08-22T22:12:35.475Z,5.20
2022-08-22T22:15:03.788Z,6.75
2022-08-22T22:17:31.864Z,7.00
2022-08-22T22:20:01.313Z,8.00
2022-08-22T22:22:29.384Z,7.80
2022-08-22T22:24:57.491Z,5.20
2022-08-22T22:27:25.578Z,5.00
2022-08-22T22:29:53.743Z,5.60
2022-08-22T22:32:21.823Z,8.00
2022-08-22T22:34:49.925Z,6.50
2022-08-22T22:37:19.553Z,7.00
2022-08-22T22:39:47.704Z,7.00
2022-08-22T22:42:15.811Z,6.00
2022-08-22T22:44:46.468Z,6.40
2022-08-22T22:47:15.741Z,6.00
2022-08-22T22:49:44.917Z,6.00
2022-08-22T22:52:12.990Z,8.00
2022-08-22T22:54:42.965Z,5.40
2022-08-22T22:57:12.155Z,6.60
2022-08-22T22:59:41.130Z,6.20
2022-08-22T23:02:10.113Z,7.00
2022-08-22T23:04:42.275Z,6.00
2022-08-22T23:07:10.997Z,5.80
2022-08-22T23:09:44.937Z,5.00
2022-08-22T23:12:14.731Z,6.00
2022-08-22T23:14:42.834Z,6.00
2022-08-22T23:17:10.895Z,8.00
2022-08-22T23:19:39.320Z,8.00
2022-08-22T23:22:07.786Z,7.00
2022-08-22T23:24:36.164Z,10.00
2022-08-22T23:27:04.426Z,5.00
2022-08-22T23:29:33.870Z,7.00
2022-08-22T23:32:02.958Z,8.00
2022-08-22T23:34:31.951Z,6.75
2022-08-22T23:37:01.330Z,7.00
2022-08-22T23:39:30.271Z,7.00
2022-08-22T23:41:58.622Z,5.80
2022-08-22T23:44:30.706Z,5.60
2022-08-22T23:47:00.453Z,5.40
2022-08-22T23:49:28.587Z,6.00
2022-08-22T23:51:56.696Z,9.00
2022-08-22T23:54:24.809Z,6.60
2022-08-22T23:56:53.799Z,7.00
2022-08-22T23:59:23.264Z,5.75
